PWSweather.com
Personal Weather Stations
Station Observations
BZA01
Southern Palatinate, Bad BergzabernDE 76887

Southern PalatinateBad BergzabernDE 76887

Lat: 49.096, Lon: 8

Elevation: 640

Station Type: Davis VP2+

Latest ConditionsUpdated 12:47:02 PM GMT+01:01 Friday, Apr 19, 2019
Currently Today's Max Today's Min Today's Average
Temperature 70.2°F21.2°C 70.2°F21.2°C 54.0°F12.2°C 59.3°F15.2°C
Dew Point 46.0°F7.8°C 47.5°F8.6°C 39.6°F4.2°C 41.6°F5.3°C
Winds 4.9 mph NE7.9 kmh NE 8.1 mph -13.0 kmh - - 4.1 mph 6.6 kmh
Wind Gusts -- 14.1 mph22.7 kmh - -
Humidity 42% 60% 42% 52%
Pressure 30.29 in1025.7 mb 30.30 in1026.1 mb 30.22 in1023.4 mb -
Hour Temp Dew Point Humidity Winds Wind Gusts Pressure Precip Precip Rate Daily Precip Total
12:47 PM 70.2°F21.2°C 46.0°F7.8°C 42% 4.9 mph NE7.9 kmh NE -- 30.29 in1025.7 mb - 0.00 in0.0 mm 0.00 in0.0 mm
12:42 PM 69.8°F21.0°C 47.5°F8.6°C 45% 4.0 mph NNE6.4 kmh NNE 2.9 mph4.7 kmh 30.29 in1025.7 mb - 0.00 in0.0 mm 0.00 in0.0 mm
12:37 PM 69.4°F20.8°C 45.3°F7.4°C 42% 4.9 mph E7.9 kmh E 4.0 mph6.4 kmh 30.29 in1025.7 mb - 0.00 in0.0 mm 0.00 in0.0 mm
12:32 PM 69.4°F20.8°C 45.3°F7.4°C 42% 4.9 mph NNE7.9 kmh NNE 2.0 mph3.2 kmh 30.29 in1025.7 mb - 0.00 in0.0 mm 0.00 in0.0 mm
12:27 PM 69.3°F20.7°C 45.1°F7.3°C 42% 4.9 mph NE7.9 kmh NE 4.0 mph6.4 kmh 30.29 in1025.7 mb - 0.00 in0.0 mm 0.00 in0.0 mm
12:22 PM 69.1°F20.6°C 47.5°F8.6°C 46% 4.9 mph NE7.9 kmh NE 4.9 mph7.9 kmh 30.30 in1026.1 mb - 0.00 in0.0 mm 0.00 in0.0 mm
12:17 PM 69.1°F20.6°C 45.0°F7.2°C 42% 4.9 mph NNE7.9 kmh NNE 2.0 mph3.2 kmh 30.30 in1026.1 mb - 0.00 in0.0 mm 0.00 in0.0 mm
12:12 PM 68.9°F20.5°C 45.5°F7.5°C 43% 4.9 mph ENE7.9 kmh ENE 6.0 mph9.7 kmh 30.30 in1026.1 mb - 0.00 in0.0 mm 0.00 in0.0 mm
12:07 PM 68.4°F20.2°C 45.0°F7.2°C 43% 4.9 mph NNE7.9 kmh NNE 4.0 mph6.4 kmh 30.30 in1026.1 mb - 0.00 in0.0 mm 0.00 in0.0 mm
12:02 PM 67.8°F19.9°C 45.7°F7.6°C 45% 4.9 mph E7.9 kmh E 8.1 mph13.0 kmh 30.30 in1026.1 mb - 0.00 in0.0 mm 0.00 in0.0 mm
11:57 AM 67.6°F19.8°C 45.0°F7.2°C 44% 4.9 mph ENE7.9 kmh ENE 4.0 mph6.4 kmh 30.30 in1026.1 mb - 0.00 in0.0 mm 0.00 in0.0 mm
11:52 AM 67.6°F19.8°C 45.0°F7.2°C 44% 4.9 mph NE7.9 kmh NE 6.0 mph9.7 kmh 30.30 in1026.1 mb - 0.00 in0.0 mm 0.00 in0.0 mm
11:47 AM 67.5°F19.7°C 44.8°F7.1°C 44% 4.9 mph E7.9 kmh E 8.1 mph13.0 kmh 30.30 in1026.1 mb - 0.00 in0.0 mm 0.00 in0.0 mm
11:42 AM 67.3°F19.6°C 44.6°F7.0°C 44% 4.9 mph E7.9 kmh E 2.0 mph3.2 kmh 30.30 in1026.1 mb - 0.00 in0.0 mm 0.00 in0.0 mm
11:37 AM 67.3°F19.6°C 45.1°F7.3°C 45% 4.9 mph NE7.9 kmh NE 4.9 mph7.9 kmh 30.30 in1026.1 mb - 0.00 in0.0 mm 0.00 in0.0 mm
11:32 AM 67.1°F19.5°C 44.4°F6.9°C 44% 4.0 mph ENE6.4 kmh ENE 4.0 mph6.4 kmh 30.30 in1026.1 mb - 0.00 in0.0 mm 0.00 in0.0 mm
11:27 AM 66.9°F19.4°C 44.2°F6.8°C 44% 4.9 mph E7.9 kmh E 0.9 mph1.4 kmh 30.30 in1026.1 mb - 0.00 in0.0 mm 0.00 in0.0 mm
11:22 AM 66.9°F19.4°C 45.0°F7.2°C 45% 4.0 mph ENE6.4 kmh ENE 4.9 mph7.9 kmh 30.30 in1026.1 mb - 0.00 in0.0 mm 0.00 in0.0 mm
11:17 AM 66.9°F19.4°C 45.5°F7.5°C 46% 4.0 mph E6.4 kmh E 6.9 mph11.1 kmh 30.30 in1026.1 mb - 0.00 in0.0 mm 0.00 in0.0 mm
11:12 AM 66.6°F19.2°C 45.1°F7.3°C 46% 4.0 mph N6.4 kmh N 2.9 mph4.7 kmh 30.30 in1026.1 mb - 0.00 in0.0 mm 0.00 in0.0 mm
11:07 AM 66.6°F19.2°C 45.7°F7.6°C 47% 4.0 mph NE6.4 kmh NE 2.9 mph4.7 kmh 30.30 in1026.1 mb - 0.00 in0.0 mm 0.00 in0.0 mm
11:02 AM 66.4°F19.1°C 45.0°F7.2°C 46% 4.0 mph NE6.4 kmh NE 2.9 mph4.7 kmh 30.30 in1026.1 mb - 0.00 in0.0 mm 0.00 in0.0 mm
10:57 AM 66.4°F19.1°C 44.4°F6.9°C 45% 4.0 mph NE6.4 kmh NE 2.9 mph4.7 kmh 30.30 in1026.1 mb - 0.00 in0.0 mm 0.00 in0.0 mm
10:52 AM 65.7°F18.7°C 45.0°F7.2°C 47% 4.0 mph NE6.4 kmh NE 2.0 mph3.2 kmh 30.30 in1026.1 mb - 0.00 in0.0 mm 0.00 in0.0 mm
10:47 AM 65.1°F18.4°C 44.4°F6.9°C 47% 4.9 mph E7.9 kmh E 4.9 mph7.9 kmh 30.30 in1026.1 mb - 0.00 in0.0 mm 0.00 in0.0 mm
10:42 AM 64.8°F18.2°C 43.5°F6.4°C 46% 6.0 mph NE9.7 kmh NE 4.0 mph6.4 kmh 30.30 in1026.1 mb - 0.00 in0.0 mm 0.00 in0.0 mm
10:37 AM 64.8°F18.2°C 43.5°F6.4°C 46% 4.9 mph NE7.9 kmh NE 6.9 mph11.1 kmh 30.30 in1026.1 mb - 0.00 in0.0 mm 0.00 in0.0 mm
10:32 AM 64.8°F18.2°C 43.5°F6.4°C 46% 4.9 mph NNE7.9 kmh NNE 2.0 mph3.2 kmh 30.30 in1026.1 mb - 0.00 in0.0 mm 0.00 in0.0 mm
10:27 AM 64.8°F18.2°C 44.1°F6.7°C 47% 4.9 mph NE7.9 kmh NE 6.9 mph11.1 kmh 30.30 in1026.1 mb - 0.00 in0.0 mm 0.00 in0.0 mm
10:22 AM 64.6°F18.1°C 43.9°F6.6°C 47% 4.0 mph NNE6.4 kmh NNE 4.9 mph7.9 kmh 30.30 in1026.1 mb - 0.00 in0.0 mm 0.00 in0.0 mm
10:17 AM 64.4°F18.0°C 43.7°F6.5°C 47% 4.0 mph NNE6.4 kmh NNE 2.9 mph4.7 kmh 30.30 in1026.1 mb - 0.00 in0.0 mm 0.00 in0.0 mm
10:12 AM 64.0°F17.8°C 43.9°F6.6°C 48% 4.9 mph NE7.9 kmh NE 2.0 mph3.2 kmh 30.30 in1026.1 mb - 0.00 in0.0 mm 0.00 in0.0 mm
10:07 AM 63.9°F17.7°C 43.2°F6.2°C 47% 4.9 mph ENE7.9 kmh ENE 2.0 mph3.2 kmh 30.30 in1026.1 mb - 0.00 in0.0 mm 0.00 in0.0 mm
10:02 AM 63.7°F17.6°C 43.7°F6.5°C 48% 4.9 mph ENE7.9 kmh ENE 8.1 mph13.0 kmh 30.30 in1026.1 mb - 0.00 in0.0 mm 0.00 in0.0 mm
09:57 AM 63.1°F17.3°C 43.7°F6.5°C 49% 4.9 mph E7.9 kmh E 4.0 mph6.4 kmh 30.30 in1026.1 mb - 0.00 in0.0 mm 0.00 in0.0 mm
09:52 AM 62.8°F17.1°C 43.3°F6.3°C 49% 4.9 mph NNE7.9 kmh NNE 4.0 mph6.4 kmh 30.30 in1026.1 mb - 0.00 in0.0 mm 0.00 in0.0 mm
09:47 AM 62.4°F16.9°C 43.5°F6.4°C 50% 6.0 mph ENE9.7 kmh ENE 2.9 mph4.7 kmh 30.30 in1026.1 mb - 0.00 in0.0 mm 0.00 in0.0 mm
09:42 AM 62.4°F16.9°C 43.5°F6.4°C 50% 6.0 mph E9.7 kmh E 8.9 mph14.3 kmh 30.30 in1026.1 mb - 0.00 in0.0 mm 0.00 in0.0 mm
09:37 AM 62.1°F16.7°C 43.7°F6.5°C 51% 4.9 mph ENE7.9 kmh ENE 2.9 mph4.7 kmh 30.30 in1026.1 mb - 0.00 in0.0 mm 0.00 in0.0 mm
09:32 AM 61.9°F16.6°C 43.5°F6.4°C 51% 6.0 mph NE9.7 kmh NE 6.9 mph11.1 kmh 30.30 in1026.1 mb - 0.00 in0.0 mm 0.00 in0.0 mm
09:27 AM 61.5°F16.4°C 43.7°F6.5°C 52% 6.9 mph ENE11.1 kmh ENE 8.9 mph14.3 kmh 30.30 in1026.1 mb - 0.00 in0.0 mm 0.00 in0.0 mm
09:22 AM 61.3°F16.3°C 43.0°F6.1°C 51% 6.9 mph NNE11.1 kmh NNE 6.9 mph11.1 kmh 30.30 in1026.1 mb - 0.00 in0.0 mm 0.00 in0.0 mm
09:17 AM 61.0°F16.1°C 42.8°F6.0°C 51% 6.9 mph ENE11.1 kmh ENE 4.9 mph7.9 kmh 30.30 in1026.1 mb - 0.00 in0.0 mm 0.00 in0.0 mm
09:12 AM 60.8°F16.0°C 42.6°F5.9°C 51% 6.0 mph NE9.7 kmh NE 4.9 mph7.9 kmh 30.30 in1026.1 mb - 0.00 in0.0 mm 0.00 in0.0 mm
09:07 AM 60.8°F16.0°C 42.6°F5.9°C 51% 4.9 mph NE7.9 kmh NE 8.9 mph14.3 kmh 30.30 in1026.1 mb - 0.00 in0.0 mm 0.00 in0.0 mm
09:02 AM 60.6°F15.9°C 42.4°F5.8°C 51% 4.9 mph ENE7.9 kmh ENE 2.9 mph4.7 kmh 30.30 in1026.1 mb - 0.00 in0.0 mm 0.00 in0.0 mm
08:57 AM 60.4°F15.8°C 42.8°F6.0°C 52% 6.0 mph ENE9.7 kmh ENE 6.0 mph9.7 kmh 30.30 in1026.1 mb - 0.00 in0.0 mm 0.00 in0.0 mm
08:52 AM 60.1°F15.6°C 42.4°F5.8°C 52% 6.9 mph NE11.1 kmh NE 6.0 mph9.7 kmh 30.29 in1025.7 mb - 0.00 in0.0 mm 0.00 in0.0 mm
08:47 AM 59.7°F15.4°C 42.1°F5.6°C 52% 6.0 mph NE9.7 kmh NE 6.0 mph9.7 kmh 30.29 in1025.7 mb - 0.00 in0.0 mm 0.00 in0.0 mm
08:42 AM 59.4°F15.2°C 41.7°F5.4°C 52% 6.9 mph NE11.1 kmh NE 4.9 mph7.9 kmh 30.29 in1025.7 mb - 0.00 in0.0 mm 0.00 in0.0 mm
08:37 AM 59.2°F15.1°C 41.5°F5.3°C 52% 6.0 mph NE9.7 kmh NE 6.9 mph11.1 kmh 30.29 in1025.7 mb - 0.00 in0.0 mm 0.00 in0.0 mm
08:32 AM 58.6°F14.8°C 41.5°F5.3°C 53% 6.9 mph NE11.1 kmh NE 6.9 mph11.1 kmh 30.29 in1025.7 mb - 0.00 in0.0 mm 0.00 in0.0 mm
08:27 AM 58.5°F14.7°C 40.8°F4.9°C 52% 8.1 mph NE13.0 kmh NE 4.0 mph6.4 kmh 30.29 in1025.7 mb - 0.00 in0.0 mm 0.00 in0.0 mm
08:22 AM 58.5°F14.7°C 40.8°F4.9°C 52% 6.0 mph NE9.7 kmh NE 6.9 mph11.1 kmh 30.28 in1025.4 mb - 0.00 in0.0 mm 0.00 in0.0 mm
08:17 AM 58.3°F14.6°C 41.2°F5.1°C 53% 6.9 mph E11.1 kmh E 4.0 mph6.4 kmh 30.28 in1025.4 mb - 0.00 in0.0 mm 0.00 in0.0 mm
08:12 AM 58.3°F14.6°C 41.2°F5.1°C 53% 6.9 mph NE11.1 kmh NE 8.1 mph13.0 kmh 30.28 in1025.4 mb - 0.00 in0.0 mm 0.00 in0.0 mm
08:07 AM 57.9°F14.4°C 40.8°F4.9°C 53% 6.9 mph NE11.1 kmh NE 4.9 mph7.9 kmh 30.28 in1025.4 mb - 0.00 in0.0 mm 0.00 in0.0 mm
08:02 AM 57.9°F14.4°C 40.8°F4.9°C 53% 6.9 mph NNE11.1 kmh NNE 4.0 mph6.4 kmh 30.28 in1025.4 mb - 0.00 in0.0 mm 0.00 in0.0 mm
07:57 AM 57.9°F14.4°C 40.8°F4.9°C 53% 6.9 mph N11.1 kmh N 14.1 mph22.7 kmh 30.28 in1025.4 mb - 0.00 in0.0 mm 0.00 in0.0 mm
07:52 AM 57.7°F14.3°C 40.6°F4.8°C 53% 6.9 mph NE11.1 kmh NE 10.1 mph16.3 kmh 30.28 in1025.4 mb - 0.00 in0.0 mm 0.00 in0.0 mm
07:47 AM 57.6°F14.2°C 41.0°F5.0°C 54% 6.0 mph NE9.7 kmh NE 4.9 mph7.9 kmh 30.28 in1025.4 mb - 0.00 in0.0 mm 0.00 in0.0 mm
07:42 AM 57.6°F14.2°C 41.0°F5.0°C 54% 6.0 mph ENE9.7 kmh ENE 8.9 mph14.3 kmh 30.28 in1025.4 mb - 0.00 in0.0 mm 0.00 in0.0 mm
07:37 AM 57.4°F14.1°C 40.8°F4.9°C 54% 6.0 mph NE9.7 kmh NE 4.9 mph7.9 kmh 30.28 in1025.4 mb - 0.00 in0.0 mm 0.00 in0.0 mm
07:32 AM 57.0°F13.9°C 40.5°F4.7°C 54% 6.9 mph ENE11.1 kmh ENE 6.0 mph9.7 kmh 30.28 in1025.4 mb - 0.00 in0.0 mm 0.00 in0.0 mm
07:27 AM 56.8°F13.8°C 40.5°F4.7°C 54% 6.0 mph NE9.7 kmh NE 6.0 mph9.7 kmh 30.28 in1025.4 mb - 0.00 in0.0 mm 0.00 in0.0 mm
07:22 AM 56.8°F13.8°C 40.8°F4.9°C 55% 6.0 mph NE9.7 kmh NE 6.0 mph9.7 kmh 30.28 in1025.4 mb - 0.00 in0.0 mm 0.00 in0.0 mm
07:17 AM 56.7°F13.7°C 40.6°F4.8°C 55% 6.0 mph NE9.7 kmh NE 4.9 mph7.9 kmh 30.28 in1025.4 mb - 0.00 in0.0 mm 0.00 in0.0 mm
07:12 AM 56.5°F13.6°C 40.5°F4.7°C 55% 6.0 mph NE9.7 kmh NE 2.9 mph4.7 kmh 30.28 in1025.4 mb - 0.00 in0.0 mm 0.00 in0.0 mm
07:07 AM 56.1°F13.4°C 40.6°F4.8°C 56% 4.9 mph NE7.9 kmh NE 4.0 mph6.4 kmh 30.28 in1025.4 mb - 0.00 in0.0 mm 0.00 in0.0 mm
07:02 AM 55.9°F13.3°C 41.0°F5.0°C 57% 4.9 mph NE7.9 kmh NE 6.0 mph9.7 kmh 30.28 in1025.4 mb - 0.00 in0.0 mm 0.00 in0.0 mm
06:57 AM 55.6°F13.1°C 40.6°F4.8°C 57% 4.9 mph ENE7.9 kmh ENE 2.9 mph4.7 kmh 30.27 in1025.1 mb - 0.00 in0.0 mm 0.00 in0.0 mm
06:52 AM 55.2°F12.9°C 40.3°F4.6°C 57% 4.9 mph NE7.9 kmh NE 6.0 mph9.7 kmh 30.27 in1025.1 mb - 0.00 in0.0 mm 0.00 in0.0 mm
06:47 AM 54.9°F12.7°C 40.3°F4.6°C 58% 4.9 mph NE7.9 kmh NE 4.9 mph7.9 kmh 30.27 in1025.1 mb - 0.00 in0.0 mm 0.00 in0.0 mm
06:42 AM 54.7°F12.6°C 40.3°F4.6°C 58% 4.9 mph ENE7.9 kmh ENE 6.0 mph9.7 kmh 30.27 in1025.1 mb - 0.00 in0.0 mm 0.00 in0.0 mm
06:37 AM 54.5°F12.5°C 40.5°F4.7°C 59% 4.0 mph NE6.4 kmh NE 2.9 mph4.7 kmh 30.27 in1025.1 mb - 0.00 in0.0 mm 0.00 in0.0 mm
06:32 AM 54.3°F12.4°C 40.3°F4.6°C 59% 4.0 mph ENE6.4 kmh ENE 4.0 mph6.4 kmh 30.27 in1025.1 mb - 0.00 in0.0 mm 0.00 in0.0 mm
06:27 AM 54.1°F12.3°C 40.1°F4.5°C 59% 2.9 mph ENE4.7 kmh ENE 0.9 mph1.4 kmh 30.27 in1025.1 mb - 0.00 in0.0 mm 0.00 in0.0 mm
06:22 AM 54.0°F12.2°C 39.9°F4.4°C 59% 2.9 mph N4.7 kmh N 4.0 mph6.4 kmh 30.27 in1025.1 mb - 0.00 in0.0 mm 0.00 in0.0 mm
06:17 AM 54.0°F12.2°C 40.5°F4.7°C 60% 2.9 mph ENE4.7 kmh ENE 4.0 mph6.4 kmh 30.27 in1025.1 mb - 0.00 in0.0 mm 0.00 in0.0 mm
06:12 AM 54.0°F12.2°C 39.9°F4.4°C 59% 2.9 mph NE4.7 kmh NE 2.9 mph4.7 kmh 30.27 in1025.1 mb - 0.00 in0.0 mm 0.00 in0.0 mm
06:07 AM 54.0°F12.2°C 39.9°F4.4°C 59% 2.9 mph E4.7 kmh E 4.0 mph6.4 kmh 30.26 in1024.7 mb - 0.00 in0.0 mm 0.00 in0.0 mm
06:02 AM 54.0°F12.2°C 39.9°F4.4°C 59% 2.9 mph NE4.7 kmh NE 2.0 mph3.2 kmh 30.26 in1024.7 mb - 0.00 in0.0 mm 0.00 in0.0 mm
05:57 AM 54.0°F12.2°C 39.9°F4.4°C 59% 2.9 mph NE4.7 kmh NE 4.0 mph6.4 kmh 30.26 in1024.7 mb - 0.00 in0.0 mm 0.00 in0.0 mm
05:52 AM 54.1°F12.3°C 39.7°F4.3°C 58% 2.9 mph ENE4.7 kmh ENE 2.9 mph4.7 kmh 30.26 in1024.7 mb - 0.00 in0.0 mm 0.00 in0.0 mm
05:47 AM 54.1°F12.3°C 39.7°F4.3°C 58% 2.9 mph NE4.7 kmh NE 6.9 mph11.1 kmh 30.26 in1024.7 mb - 0.00 in0.0 mm 0.00 in0.0 mm
05:42 AM 54.3°F12.4°C 39.9°F4.4°C 58% 4.0 mph N6.4 kmh N 2.9 mph4.7 kmh 30.25 in1024.4 mb - 0.00 in0.0 mm 0.00 in0.0 mm
05:37 AM 54.3°F12.4°C 39.9°F4.4°C 58% 4.0 mph NE6.4 kmh NE 6.0 mph9.7 kmh 30.25 in1024.4 mb - 0.00 in0.0 mm 0.00 in0.0 mm
05:32 AM 54.5°F12.5°C 40.1°F4.5°C 58% 2.9 mph NE4.7 kmh NE 2.9 mph4.7 kmh 30.25 in1024.4 mb - 0.00 in0.0 mm 0.00 in0.0 mm
05:27 AM 54.7°F12.6°C 40.3°F4.6°C 58% 2.9 mph NE4.7 kmh NE 2.0 mph3.2 kmh 30.25 in1024.4 mb - 0.00 in0.0 mm 0.00 in0.0 mm
05:22 AM 54.7°F12.6°C 39.7°F4.3°C 57% 2.9 mph NE4.7 kmh NE 2.0 mph3.2 kmh 30.25 in1024.4 mb - 0.00 in0.0 mm 0.00 in0.0 mm
05:17 AM 54.7°F12.6°C 39.7°F4.3°C 57% 2.9 mph NE4.7 kmh NE 4.0 mph6.4 kmh 30.25 in1024.4 mb - 0.00 in0.0 mm 0.00 in0.0 mm
05:12 AM 54.9°F12.7°C 39.9°F4.4°C 57% 2.9 mph ENE4.7 kmh ENE 2.9 mph4.7 kmh 30.25 in1024.4 mb - 0.00 in0.0 mm 0.00 in0.0 mm
05:07 AM 54.9°F12.7°C 39.9°F4.4°C 57% 2.9 mph ENE4.7 kmh ENE 2.9 mph4.7 kmh 30.25 in1024.4 mb - 0.00 in0.0 mm 0.00 in0.0 mm
05:02 AM 55.0°F12.8°C 40.1°F4.5°C 57% 2.9 mph ENE4.7 kmh ENE 4.0 mph6.4 kmh 30.25 in1024.4 mb - 0.00 in0.0 mm 0.00 in0.0 mm
04:57 AM 55.0°F12.8°C 40.1°F4.5°C 57% 4.0 mph N6.4 kmh N 6.9 mph11.1 kmh 30.25 in1024.4 mb - 0.00 in0.0 mm 0.00 in0.0 mm
04:52 AM 55.0°F12.8°C 40.1°F4.5°C 57% 4.0 mph ENE6.4 kmh ENE 2.0 mph3.2 kmh 30.24 in1024.0 mb - 0.00 in0.0 mm 0.00 in0.0 mm
04:47 AM 55.0°F12.8°C 39.6°F4.2°C 56% 4.0 mph E6.4 kmh E 4.0 mph6.4 kmh 30.24 in1024.0 mb - 0.00 in0.0 mm 0.00 in0.0 mm
04:42 AM 55.2°F12.9°C 39.7°F4.3°C 56% 4.0 mph NE6.4 kmh NE 2.9 mph4.7 kmh 30.24 in1024.0 mb - 0.00 in0.0 mm 0.00 in0.0 mm
04:37 AM 55.2°F12.9°C 39.7°F4.3°C 56% 2.9 mph E4.7 kmh E 4.9 mph7.9 kmh 30.24 in1024.0 mb - 0.00 in0.0 mm 0.00 in0.0 mm
04:32 AM 55.4°F13.0°C 39.9°F4.4°C 56% 2.9 mph NE4.7 kmh NE 4.9 mph7.9 kmh 30.24 in1024.0 mb - 0.00 in0.0 mm 0.00 in0.0 mm
04:27 AM 55.6°F13.1°C 40.1°F4.5°C 56% 2.9 mph E4.7 kmh E 2.9 mph4.7 kmh 30.24 in1024.0 mb - 0.00 in0.0 mm 0.00 in0.0 mm
04:22 AM 55.8°F13.2°C 40.3°F4.6°C 56% 2.9 mph NE4.7 kmh NE 2.0 mph3.2 kmh 30.24 in1024.0 mb - 0.00 in0.0 mm 0.00 in0.0 mm
04:17 AM 55.8°F13.2°C 39.9°F4.4°C 55% 2.9 mph NE4.7 kmh NE 2.9 mph4.7 kmh 30.24 in1024.0 mb - 0.00 in0.0 mm 0.00 in0.0 mm
04:12 AM 55.9°F13.3°C 39.9°F4.4°C 55% 2.9 mph NE4.7 kmh NE 2.0 mph3.2 kmh 30.23 in1023.7 mb - 0.00 in0.0 mm 0.00 in0.0 mm
04:07 AM 56.1°F13.4°C 39.7°F4.3°C 54% 2.9 mph NE4.7 kmh NE 4.0 mph6.4 kmh 30.24 in1024.0 mb - 0.00 in0.0 mm 0.00 in0.0 mm
04:02 AM 56.1°F13.4°C 39.7°F4.3°C 54% 2.9 mph ENE4.7 kmh ENE 4.0 mph6.4 kmh 30.23 in1023.7 mb - 0.00 in0.0 mm 0.00 in0.0 mm
03:57 AM 56.1°F13.4°C 39.7°F4.3°C 54% 2.9 mph ENE4.7 kmh ENE 4.0 mph6.4 kmh 30.23 in1023.7 mb - 0.00 in0.0 mm 0.00 in0.0 mm
03:52 AM 56.3°F13.5°C 39.9°F4.4°C 54% 2.9 mph ENE4.7 kmh ENE 2.0 mph3.2 kmh 30.23 in1023.7 mb - 0.00 in0.0 mm 0.00 in0.0 mm
03:47 AM 56.5°F13.6°C 40.1°F4.5°C 54% 2.9 mph SW4.7 kmh SW 2.9 mph4.7 kmh 30.23 in1023.7 mb - 0.00 in0.0 mm 0.00 in0.0 mm
03:42 AM 56.5°F13.6°C 40.1°F4.5°C 54% 2.9 mph NE4.7 kmh NE 6.0 mph9.7 kmh 30.23 in1023.7 mb - 0.00 in0.0 mm 0.00 in0.0 mm
03:37 AM 56.5°F13.6°C 40.1°F4.5°C 54% 2.9 mph NE4.7 kmh NE 4.0 mph6.4 kmh 30.23 in1023.7 mb - 0.00 in0.0 mm 0.00 in0.0 mm
03:32 AM 56.5°F13.6°C 40.1°F4.5°C 54% 2.9 mph ENE4.7 kmh ENE 2.0 mph3.2 kmh 30.23 in1023.7 mb - 0.00 in0.0 mm 0.00 in0.0 mm
03:27 AM 56.5°F13.6°C 40.1°F4.5°C 54% 2.9 mph NE4.7 kmh NE 4.0 mph6.4 kmh 30.23 in1023.7 mb - 0.00 in0.0 mm 0.00 in0.0 mm
03:22 AM 56.5°F13.6°C 40.1°F4.5°C 54% 2.9 mph ENE4.7 kmh ENE 0.9 mph1.4 kmh 30.23 in1023.7 mb - 0.00 in0.0 mm 0.00 in0.0 mm
03:17 AM 56.5°F13.6°C 40.1°F4.5°C 54% 2.9 mph NE4.7 kmh NE 2.9 mph4.7 kmh 30.23 in1023.7 mb - 0.00 in0.0 mm 0.00 in0.0 mm
03:12 AM 56.5°F13.6°C 40.1°F4.5°C 54% 2.9 mph NE4.7 kmh NE 2.9 mph4.7 kmh 30.22 in1023.4 mb - 0.00 in0.0 mm 0.00 in0.0 mm
03:07 AM 56.5°F13.6°C 40.1°F4.5°C 54% 2.9 mph ENE4.7 kmh ENE 2.0 mph3.2 kmh 30.22 in1023.4 mb - 0.00 in0.0 mm 0.00 in0.0 mm
03:02 AM 56.5°F13.6°C 40.1°F4.5°C 54% 2.0 mph ENE3.2 kmh ENE 2.0 mph3.2 kmh 30.23 in1023.7 mb - 0.00 in0.0 mm 0.00 in0.0 mm
02:57 AM 56.7°F13.7°C 40.3°F4.6°C 54% 2.9 mph ENE4.7 kmh ENE 2.0 mph3.2 kmh 30.22 in1023.4 mb - 0.00 in0.0 mm 0.00 in0.0 mm
02:52 AM 56.5°F13.6°C 40.1°F4.5°C 54% 2.0 mph ENE3.2 kmh ENE 2.0 mph3.2 kmh 30.22 in1023.4 mb - 0.00 in0.0 mm 0.00 in0.0 mm
02:47 AM 56.7°F13.7°C 40.3°F4.6°C 54% 2.0 mph NE3.2 kmh NE 4.0 mph6.4 kmh 30.22 in1023.4 mb - 0.00 in0.0 mm 0.00 in0.0 mm
02:42 AM 56.8°F13.8°C 39.9°F4.4°C 53% 2.0 mph NE3.2 kmh NE 0.9 mph1.4 kmh 30.22 in1023.4 mb - 0.00 in0.0 mm 0.00 in0.0 mm
02:37 AM 57.0°F13.9°C 40.1°F4.5°C 53% 2.9 mph ENE4.7 kmh ENE -- 30.22 in1023.4 mb - 0.00 in0.0 mm 0.00 in0.0 mm
02:32 AM 57.0°F13.9°C 40.1°F4.5°C 53% 2.9 mph NE4.7 kmh NE 2.0 mph3.2 kmh 30.22 in1023.4 mb - 0.00 in0.0 mm 0.00 in0.0 mm
02:27 AM 57.2°F14.0°C 39.7°F4.3°C 52% 2.9 mph NE4.7 kmh NE 4.0 mph6.4 kmh 30.22 in1023.4 mb - 0.00 in0.0 mm 0.00 in0.0 mm
02:22 AM 57.2°F14.0°C 39.7°F4.3°C 52% 2.9 mph NE4.7 kmh NE 2.0 mph3.2 kmh 30.22 in1023.4 mb - 0.00 in0.0 mm 0.00 in0.0 mm
02:17 AM 57.2°F14.0°C 40.3°F4.6°C 53% 2.9 mph ENE4.7 kmh ENE 2.0 mph3.2 kmh 30.22 in1023.4 mb - 0.00 in0.0 mm 0.00 in0.0 mm
02:12 AM 57.2°F14.0°C 40.3°F4.6°C 53% 2.9 mph NE4.7 kmh NE 2.9 mph4.7 kmh 30.22 in1023.4 mb - 0.00 in0.0 mm 0.00 in0.0 mm
02:07 AM 57.2°F14.0°C 39.7°F4.3°C 52% 2.9 mph NE4.7 kmh NE 4.0 mph6.4 kmh 30.22 in1023.4 mb - 0.00 in0.0 mm 0.00 in0.0 mm
02:02 AM 57.4°F14.1°C 39.9°F4.4°C 52% 2.9 mph NE4.7 kmh NE 4.0 mph6.4 kmh 30.22 in1023.4 mb - 0.00 in0.0 mm 0.00 in0.0 mm
01:57 AM 57.6°F14.2°C 40.1°F4.5°C 52% 2.9 mph NE4.7 kmh NE 2.0 mph3.2 kmh 30.22 in1023.4 mb - 0.00 in0.0 mm 0.00 in0.0 mm
01:52 AM 57.6°F14.2°C 40.1°F4.5°C 52% 2.9 mph NE4.7 kmh NE 2.9 mph4.7 kmh 30.22 in1023.4 mb - 0.00 in0.0 mm 0.00 in0.0 mm
01:47 AM 57.7°F14.3°C 40.3°F4.6°C 52% 2.9 mph NE4.7 kmh NE 0.9 mph1.4 kmh 30.22 in1023.4 mb - 0.00 in0.0 mm 0.00 in0.0 mm
01:42 AM 57.7°F14.3°C 40.3°F4.6°C 52% 2.9 mph NE4.7 kmh NE 2.9 mph4.7 kmh 30.22 in1023.4 mb - 0.00 in0.0 mm 0.00 in0.0 mm
01:37 AM 57.7°F14.3°C 40.3°F4.6°C 52% 2.9 mph NE4.7 kmh NE 6.9 mph11.1 kmh 30.22 in1023.4 mb - 0.00 in0.0 mm 0.00 in0.0 mm
01:32 AM 57.7°F14.3°C 40.3°F4.6°C 52% 2.0 mph E3.2 kmh E 4.0 mph6.4 kmh 30.22 in1023.4 mb - 0.00 in0.0 mm 0.00 in0.0 mm
01:27 AM 57.7°F14.3°C 40.3°F4.6°C 52% 2.0 mph ENE3.2 kmh ENE 2.9 mph4.7 kmh 30.22 in1023.4 mb - 0.00 in0.0 mm 0.00 in0.0 mm
01:22 AM 57.9°F14.4°C 40.5°F4.7°C 52% 2.9 mph ENE4.7 kmh ENE 2.0 mph3.2 kmh 30.22 in1023.4 mb - 0.00 in0.0 mm 0.00 in0.0 mm
01:17 AM 57.9°F14.4°C 40.5°F4.7°C 52% 2.9 mph NE4.7 kmh NE 0.9 mph1.4 kmh 30.22 in1023.4 mb - 0.00 in0.0 mm 0.00 in0.0 mm
01:12 AM 58.1°F14.5°C 40.1°F4.5°C 51% 2.0 mph ENE3.2 kmh ENE 2.9 mph4.7 kmh 30.22 in1023.4 mb - 0.00 in0.0 mm 0.00 in0.0 mm
01:07 AM 58.3°F14.6°C 40.3°F4.6°C 51% 2.9 mph NNE4.7 kmh NNE 2.9 mph4.7 kmh 30.22 in1023.4 mb - 0.00 in0.0 mm 0.00 in0.0 mm
01:02 AM 58.3°F14.6°C 40.3°F4.6°C 51% 2.9 mph ENE4.7 kmh ENE 2.0 mph3.2 kmh 30.22 in1023.4 mb - 0.00 in0.0 mm 0.00 in0.0 mm
12:57 AM 58.3°F14.6°C 40.3°F4.6°C 51% 2.9 mph ENE4.7 kmh ENE 0.9 mph1.4 kmh 30.22 in1023.4 mb - 0.00 in0.0 mm 0.00 in0.0 mm
12:52 AM 58.5°F14.7°C 40.5°F4.7°C 51% 2.9 mph ENE4.7 kmh ENE 2.0 mph3.2 kmh 30.22 in1023.4 mb - 0.00 in0.0 mm 0.00 in0.0 mm
12:47 AM 58.5°F14.7°C 40.5°F4.7°C 51% 2.9 mph E4.7 kmh E 2.9 mph4.7 kmh 30.22 in1023.4 mb - 0.00 in0.0 mm 0.00 in0.0 mm
12:42 AM 58.5°F14.7°C 40.5°F4.7°C 51% 2.9 mph NE4.7 kmh NE 2.0 mph3.2 kmh 30.22 in1023.4 mb - 0.00 in0.0 mm 0.00 in0.0 mm
12:37 AM 58.5°F14.7°C 40.5°F4.7°C 51% 2.0 mph ENE3.2 kmh ENE 4.0 mph6.4 kmh 30.22 in1023.4 mb - 0.00 in0.0 mm 0.00 in0.0 mm
12:32 AM 58.6°F14.8°C 40.6°F4.8°C 51% 2.9 mph E4.7 kmh E 2.0 mph3.2 kmh 30.22 in1023.4 mb - 0.00 in0.0 mm 0.00 in0.0 mm
12:27 AM 58.8°F14.9°C 40.8°F4.9°C 51% 2.9 mph NE4.7 kmh NE 2.0 mph3.2 kmh 30.22 in1023.4 mb - 0.00 in0.0 mm 0.00 in0.0 mm
12:22 AM 58.8°F14.9°C 40.8°F4.9°C 51% 2.9 mph NE4.7 kmh NE 2.9 mph4.7 kmh 30.22 in1023.4 mb - 0.00 in0.0 mm 0.00 in0.0 mm
12:17 AM 59.0°F15.0°C 40.8°F4.9°C 51% 2.0 mph N3.2 kmh N 2.0 mph3.2 kmh 30.22 in1023.4 mb - 0.00 in0.0 mm 0.00 in0.0 mm
12:12 AM 59.2°F15.1°C 40.6°F4.8°C 50% 2.9 mph NE4.7 kmh NE 2.0 mph3.2 kmh 30.22 in1023.4 mb - 0.00 in0.0 mm 0.00 in0.0 mm
12:07 AM 59.2°F15.1°C 40.6°F4.8°C 50% 2.9 mph NE4.7 kmh NE 2.9 mph4.7 kmh 30.22 in1023.4 mb - 0.00 in0.0 mm 0.00 in0.0 mm
12:02 AM 59.2°F15.1°C 41.0°F5.0°C 51% 2.9 mph ENE4.7 kmh ENE 4.0 mph6.4 kmh 30.22 in1023.4 mb - 0.00 in0.0 mm 0.00 in0.0 mm